Time;durP1;ratioP1;P1;durP2;ratioP2;P2;SDS_P1;SDS_P2;PMS_P1;PMS_P2;Temp;Humidity;BMP_temperature;BMP_pressure;BME280_temperature;BME280_humidity;BME280_pressure;Samples;Min_cycle;Max_cycle;Signal;HPM_P1;HPM_P2
2023/03/20 00:00:15;;;;;;;65.60;36.00;;;;;;;4.48;96.43;100506.63;213441;1292;139830;-92
2023/03/20 00:05:22;;;;;;;63.90;35.10;;;;;;;4.45;96.92;100512.27;214018;1289;138603;-92
2023/03/20 00:10:34;;;;;;;67.10;35.50;;;;;;;4.44;97.08;100515.26;213672;1291;140047;-92
2023/03/20 00:15:41;;;;;;;60.40;34.10;;;;;;;4.41;97.46;100511.87;213919;1292;141873;-92
2023/03/20 00:20:43;;;;;;;61.40;35.70;;;;;;;4.38;97.55;100508.58;213324;1289;139499;-92
2023/03/20 00:25:45;;;;;;;59.80;35.10;;;;;;;4.34;97.67;100505.50;213890;1289;138667;-91
2023/03/20 00:30:46;;;;;;;63.40;34.80;;;;;;;4.33;97.96;100506.31;213444;1295;138770;-92
2023/03/20 00:35:47;;;;;;;69.00;37.80;;;;;;;4.36;97.47;100504.77;213790;1295;138924;-91
2023/03/20 00:40:47;;;;;;;62.10;34.30;;;;;;;4.38;98.17;100502.44;213276;1295;139600;-92
2023/03/20 00:45:48;;;;;;;59.50;33.60;;;;;;;4.38;98.31;100497.55;213911;1293;139231;-91
2023/03/20 00:50:49;;;;;;;59.20;34.10;;;;;;;4.36;98.35;100491.47;213384;1294;139614;-91
2023/03/20 00:55:49;;;;;;;64.50;34.60;;;;;;;4.35;98.21;100491.80;213736;1295;138751;-92
2023/03/20 01:00:51;;;;;;;67.30;37.10;;;;;;;4.34;98.31;100494.81;213499;1295;139525;-91
2023/03/20 01:05:51;;;;;;;60.90;33.50;;;;;;;4.32;98.77;100495.45;213879;1294;138900;-93
2023/03/20 01:10:54;;;;;;;62.80;35.40;;;;;;;4.30;99.01;100488.58;213368;1292;139606;-92
2023/03/20 01:15:56;;;;;;;69.20;38.10;;;;;;;4.28;98.68;100485.42;213819;1295;138645;-91
2023/03/20 01:20:59;;;;;;;70.10;36.80;;;;;;;4.27;99.09;100483.27;213469;1294;140072;-92
2023/03/20 01:26:00;;;;;;;69.40;37.30;;;;;;;4.26;98.54;100480.44;213857;1293;138880;-91
2023/03/20 01:31:00;;;;;;;62.30;35.40;;;;;;;4.26;98.99;100478.32;213312;1294;139014;-91
2023/03/20 01:36:02;;;;;;;68.20;37.70;;;;;;;4.25;99.16;100481.41;214067;1299;138621;-91
2023/03/20 01:41:11;;;;;;;70.20;38.10;;;;;;;4.19;99.75;100477.52;213367;1289;139137;-91
2023/03/20 01:46:16;;;;;;;71.80;40.40;;;;;;;4.16;99.75;100471.70;213948;1292;138947;-91
2023/03/20 01:51:19;;;;;;;64.20;36.20;;;;;;;4.20;99.75;100470.46;213305;1294;138760;-91
2023/03/20 01:56:20;;;;;;;75.00;40.40;;;;;;;4.22;100.00;100466.44;213699;1295;137657;-92
2023/03/20 02:01:22;;;;;;;71.40;40.70;;;;;;;4.28;100.00;100464.52;213253;1294;139722;-91
2023/03/20 02:06:25;;;;;;;81.30;44.80;;;;;;;4.33;100.00;100465.05;213758;1294;112028;-91
2023/03/20 02:11:26;;;;;;;71.90;39.60;;;;;;;4.41;100.00;100463.95;213332;1291;140012;-90
2023/03/20 02:16:26;;;;;;;78.40;41.40;;;;;;;4.47;100.00;100468.35;213760;1294;139734;-91
2023/03/20 02:21:51;;;;;;;78.70;44.60;;;;;;;4.54;100.00;100465.40;213129;1295;139635;-91
2023/03/20 02:26:55;;;;;;;78.80;43.20;;;;;;;4.60;100.00;100472.10;213822;1292;139217;-90
2023/03/20 02:31:58;;;;;;;71.00;40.80;;;;;;;4.68;100.00;100469.73;213237;1294;139471;-90
2023/03/20 02:37:21;;;;;;;74.10;40.20;;;;;;;4.75;100.00;100467.96;214446;1291;98377;-90
2023/03/20 02:42:47;;;;;;;81.70;43.10;;;;;;;4.83;100.00;100472.98;213361;1288;138883;-90
2023/03/20 02:48:03;;;;;;;79.50;45.10;;;;;;;4.92;100.00;100470.02;213628;1293;138805;-89
2023/03/20 02:53:05;;;;;;;73.20;41.40;;;;;;;5.00;100.00;100471.70;213232;1291;139292;-89
2023/03/20 02:58:25;;;;;;;77.00;44.00;;;;;;;5.07;100.00;100466.93;213773;1289;140011;-89
2023/03/20 03:03:34;;;;;;;81.80;44.00;;;;;;;5.14;100.00;100460.62;213134;1289;139651;-90
2023/03/20 03:08:41;;;;;;;92.80;53.20;;;;;;;5.22;100.00;100457.85;213631;1289;138869;-88
2023/03/20 03:13:47;;;;;;;101.80;55.90;;;;;;;5.31;100.00;100456.03;213483;1294;140175;-87
2023/03/20 03:18:51;;;;;;;102.70;55.90;;;;;;;5.38;100.00;100455.20;213571;1294;139906;-87
2023/03/20 03:23:52;;;;;;;102.50;56.30;;;;;;;5.46;100.00;100457.62;213905;1291;138344;-89
2023/03/20 03:29:23;;;;;;;97.60;52.10;;;;;;;5.54;100.00;100453.11;213241;1292;140345;-88
2023/03/20 03:34:24;;;;;;;94.30;50.50;;;;;;;5.64;100.00;100454.90;213745;1292;139407;-87
2023/03/20 03:39:37;;;;;;;84.30;50.50;;;;;;;5.71;100.00;100455.60;213202;1288;139193;-87
2023/03/20 03:45:03;;;;;;;94.40;53.80;;;;;;;5.76;100.00;100450.67;213721;1292;139982;-87
2023/03/20 03:50:12;;;;;;;94.10;53.70;;;;;;;5.84;100.00;100445.40;213165;1292;139367;-87
2023/03/20 03:55:24;;;;;;;90.10;52.90;;;;;;;5.93;100.00;100442.82;213606;1294;139008;-86
2023/03/20 04:00:27;;;;;;;91.60;51.70;;;;;;;5.98;100.00;100437.19;213437;1294;139340;-87
2023/03/20 04:05:31;;;;;;;89.50;53.10;;;;;;;6.07;100.00;100438.14;213615;1291;139038;-87
2023/03/20 04:10:32;;;;;;;88.40;50.50;;;;;;;6.13;100.00;100442.76;213464;1289;313351;-87
2023/03/20 04:15:33;;;;;;;87.00;48.70;;;;;;;6.15;100.00;100447.83;213776;1292;138874;-87
2023/03/20 04:20:34;;;;;;;86.70;51.50;;;;;;;6.13;100.00;100451.13;213316;1291;139441;-87
2023/03/20 04:25:34;;;;;;;87.40;50.60;;;;;;;6.14;100.00;100453.17;213943;1294;139995;-86
2023/03/20 04:30:35;;;;;;;74.60;44.50;;;;;;;6.15;100.00;100452.26;213505;1291;139613;-86
2023/03/20 04:35:35;;;;;;;82.20;50.40;;;;;;;6.12;100.00;100448.99;213829;1294;139109;-86
2023/03/20 04:40:36;;;;;;;71.90;44.50;;;;;;;6.11;100.00;100446.68;213368;1292;140612;-86
2023/03/20 04:45:36;;;;;;;76.10;46.40;;;;;;;6.05;100.00;100446.36;213842;1289;138969;-86
2023/03/20 04:50:37;;;;;;;78.90;48.90;;;;;;;6.02;100.00;100445.66;213412;1289;139848;-85
2023/03/20 04:55:37;;;;;;;94.10;57.40;;;;;;;6.01;100.00;100450.67;214002;1289;138887;-85
2023/03/20 05:00:37;;;;;;;84.20;50.90;;;;;;;6.01;100.00;100447.56;213461;1291;140102;-86
2023/03/20 05:05:38;;;;;;;83.20;50.80;;;;;;;6.02;100.00;100451.13;213731;1290;139140;-85
2023/03/20 05:10:39;;;;;;;82.00;48.30;;;;;;;6.02;100.00;100454.56;213219;1293;140993;-86
2023/03/20 05:15:39;;;;;;;81.90;48.60;;;;;;;6.04;100.00;100453.13;213704;1291;139029;-86
2023/03/20 05:20:40;;;;;;;81.80;49.60;;;;;;;6.06;100.00;100458.64;213218;1289;139113;-86
2023/03/20 05:25:40;;;;;;;86.00;48.40;;;;;;;6.07;100.00;100460.71;213911;1293;139005;-85
2023/03/20 05:30:41;;;;;;;74.50;48.20;;;;;;;6.12;100.00;100468.82;213367;1291;140267;-85
2023/03/20 05:35:41;;;;;;;87.10;50.70;;;;;;;6.15;100.00;100463.35;213888;1291;138799;-85
2023/03/20 05:40:41;;;;;;;79.00;48.30;;;;;;;6.21;100.00;100466.10;213357;1292;138892;-85
2023/03/20 05:45:42;;;;;;;81.50;48.40;;;;;;;6.25;100.00;100462.95;213831;1291;138844;-85
2023/03/20 05:50:43;;;;;;;85.90;49.50;;;;;;;6.32;100.00;100471.04;213191;1289;140020;-84
2023/03/20 05:55:43;;;;;;;89.10;51.10;;;;;;;6.38;100.00;100470.42;213819;1292;138961;-85
2023/03/20 06:00:44;;;;;;;93.00;55.20;;;;;;;6.45;100.00;100471.16;213501;1291;139771;-85
2023/03/20 06:05:44;;;;;;;96.60;58.00;;;;;;;6.51;100.00;100474.01;214302;1291;138789;-86
2023/03/20 06:10:45;;;;;;;86.80;53.00;;;;;;;6.59;100.00;100475.54;213810;1291;138936;-85
2023/03/20 06:15:45;;;;;;;90.40;53.50;;;;;;;6.66;100.00;100477.86;214030;1292;138798;-85
2023/03/20 06:20:52;;;;;;;76.80;46.80;;;;;;;6.73;100.00;100480.85;213586;1289;139669;-85
2023/03/20 06:25:53;;;;;;;77.10;47.70;;;;;;;6.83;100.00;100484.34;214255;1289;139016;-83
2023/03/20 06:30:53;;;;;;;87.70;53.50;;;;;;;6.92;100.00;100483.27;213485;1288;140171;-83
2023/03/20 06:35:54;;;;;;;90.60;53.20;;;;;;;7.01;100.00;100485.91;214161;1292;140044;-82
2023/03/20 06:40:54;;;;;;;95.60;57.20;;;;;;;7.13;100.00;100488.55;213296;1291;139432;-82
2023/03/20 06:45:55;;;;;;;100.30;57.00;;;;;;;7.23;100.00;100488.12;214003;1291;139649;-82
2023/03/20 06:50:55;;;;;;;98.80;56.50;;;;;;;7.32;100.00;100489.20;213532;1288;140212;-83
2023/03/20 06:55:55;;;;;;;87.60;52.80;;;;;;;7.40;100.00;100491.21;214134;1289;138842;-83
2023/03/20 07:00:56;;;;;;;91.70;55.20;;;;;;;7.48;100.00;100494.77;213992;1294;140153;-84
2023/03/20 07:05:56;;;;;;;76.80;48.60;;;;;;;7.57;100.00;100490.52;214273;1292;139018;-83
2023/03/20 07:10:57;;;;;;;88.30;53.10;;;;;;;7.65;100.00;100492.34;214025;1292;139403;-83
2023/03/20 07:16:00;;;;;;;106.10;73.50;;;;;;;7.73;100.00;100498.41;214205;1292;138815;-84
2023/03/20 07:21:04;;;;;;;90.90;57.60;;;;;;;7.83;100.00;100500.54;213434;1291;140578;-84
2023/03/20 07:26:05;;;;;;;88.00;57.40;;;;;;;7.94;100.00;100497.02;214099;1288;139508;-83
2023/03/20 07:31:06;;;;;;;81.00;53.10;;;;;;;8.06;100.00;100493.53;213667;1288;140173;-83
2023/03/20 07:36:06;;;;;;;74.20;47.60;;;;;;;8.20;100.00;100493.54;214091;1291;138487;-83
2023/03/20 07:41:06;;;;;;;99.00;60.00;;;;;;;8.33;100.00;100494.16;213532;1294;139580;-83
2023/03/20 07:46:07;;;;;;;83.60;52.10;;;;;;;8.49;100.00;100493.71;214125;1291;140271;-82
2023/03/20 07:51:08;;;;;;;78.60;49.40;;;;;;;8.65;100.00;100498.89;213492;1288;139689;-83
2023/03/20 07:56:09;;;;;;;81.90;48.10;;;;;;;8.84;100.00;100501.30;213864;1289;139390;-83
2023/03/20 08:01:10;;;;;;;71.80;43.90;;;;;;;9.05;100.00;100496.75;213727;1289;139827;-83
2023/03/20 08:06:10;;;;;;;66.50;43.00;;;;;;;9.25;100.00;100491.30;213926;1291;138498;-84
2023/03/20 08:11:11;;;;;;;67.70;42.40;;;;;;;9.46;100.00;100499.66;213444;1289;140614;-84
2023/03/20 08:16:12;;;;;;;70.70;41.70;;;;;;;9.67;100.00;100505.98;214180;1289;138999;-83
2023/03/20 08:21:12;;;;;;;63.60;39.70;;;;;;;9.89;100.00;100502.70;213423;1289;139377;-84
2023/03/20 08:26:13;;;;;;;81.50;54.10;;;;;;;10.10;100.00;100505.08;214009;1293;139375;-84
2023/03/20 08:31:16;;;;;;;68.50;46.70;;;;;;;10.32;100.00;100505.79;213706;1292;140315;-84
2023/03/20 08:36:19;;;;;;;51.90;35.10;;;;;;;10.49;100.00;100513.70;214208;1289;110582;-84
2023/03/20 08:41:19;;;;;;;53.20;33.90;;;;;;;10.67;100.00;100513.61;213470;1290;139855;-84
2023/03/20 08:46:20;;;;;;;51.90;33.90;;;;;;;10.83;100.00;100519.55;213988;1290;140309;-84
2023/03/20 08:51:21;;;;;;;44.90;30.90;;;;;;;11.00;100.00;100516.11;213704;1289;139970;-84
2023/03/20 08:56:21;;;;;;;47.00;30.70;;;;;;;11.15;100.00;100520.44;214451;1291;139393;-85
2023/03/20 09:01:22;;;;;;;43.20;29.40;;;;;;;11.30;100.00;100521.14;213416;1289;139849;-83
2023/03/20 09:06:22;;;;;;;49.40;34.70;;;;;;;11.41;100.00;100519.20;214342;1289;99230;-84
2023/03/20 09:11:23;;;;;;;40.60;26.50;;;;;;;11.48;100.00;100531.79;213461;1292;139043;-84
2023/03/20 09:16:24;;;;;;;42.70;27.70;;;;;;;11.56;100.00;100530.06;213836;1289;139305;-84
2023/03/20 09:21:24;;;;;;;40.60;28.70;;;;;;;11.71;100.00;100522.00;213470;1289;141548;-83
2023/03/20 09:26:25;;;;;;;37.00;25.50;;;;;;;11.95;100.00;100513.84;213914;1288;139347;-85
2023/03/20 09:31:26;;;;;;;38.50;24.80;;;;;;;12.14;100.00;100513.34;213576;1289;140429;-84
2023/03/20 09:36:27;;;;;;;33.20;23.70;;;;;;;12.31;100.00;100515.01;214189;1294;112228;-84
2023/03/20 09:41:27;;;;;;;34.10;23.40;;;;;;;12.49;100.00;100510.45;213415;1293;139708;-85
2023/03/20 09:46:59;;;;;;;32.20;21.70;;;;;;;12.72;100.00;100505.80;213897;1291;139681;-85
2023/03/20 09:52:08;;;;;;;31.50;21.50;;;;;;;12.97;100.00;100509.85;213301;1289;139925;-85
2023/03/20 09:57:20;;;;;;;29.40;20.00;;;;;;;13.13;100.00;100515.27;214154;1289;139551;-84
2023/03/20 10:02:47;;;;;;;29.90;20.30;;;;;;;13.29;100.00;100518.21;213463;1294;139236;-86
2023/03/20 10:07:48;;;;;;;29.30;19.60;;;;;;;13.45;100.00;100520.44;213832;1293;139481;-85
2023/03/20 10:13:11;;;;;;;32.60;19.20;;;;;;;13.61;100.00;100516.98;213341;1294;139320;-85
2023/03/20 10:18:20;;;;;;;30.10;18.10;;;;;;;13.84;100.00;100521.55;214258;1289;140305;-86
2023/03/20 10:23:41;;;;;;;23.50;16.70;;;;;;;14.00;100.00;100518.07;213900;1291;140839;-85
2023/03/20 10:29:00;;;;;;;26.60;18.00;;;;;;;14.14;100.00;100512.98;213888;1293;139615;-84
2023/03/20 10:34:08;;;;;;;24.00;15.40;;;;;;;14.39;100.00;100512.32;214772;1291;139773;-85
2023/03/20 10:39:12;;;;;;;24.50;16.40;;;;;;;14.63;100.00;100516.81;213605;1294;139648;-85
2023/03/20 10:44:24;;;;;;;25.40;15.70;;;;;;;14.82;100.00;100515.63;213909;1289;139482;-85
2023/03/20 10:49:38;;;;;;;23.80;17.00;;;;;;;15.18;100.00;100511.08;213477;1289;139292;-86
2023/03/20 10:54:44;;;;;;;23.40;16.40;;;;;;;15.72;100.00;100511.56;213823;1289;105055;-86
2023/03/20 10:59:50;;;;;;;29.00;19.70;;;;;;;16.28;98.80;100499.30;213719;1294;140071;-86
2023/03/20 11:04:50;;;;;;;27.20;19.10;;;;;;;16.52;94.82;100499.59;213777;1292;138836;-87
2023/03/20 11:10:15;;;;;;;24.50;17.40;;;;;;;16.73;94.66;100503.30;213415;1293;139529;-87
2023/03/20 11:15:24;;;;;;;28.30;17.90;;;;;;;17.11;91.59;100501.20;213894;1289;140775;-86
2023/03/20 11:20:30;;;;;;;21.40;16.90;;;;;;;17.20;90.00;100497.64;213858;1290;139843;-87
2023/03/20 11:25:38;;;;;;;23.00;17.70;;;;;;;17.34;88.87;100500.14;213829;1290;139114;-86
2023/03/20 11:30:40;;;;;;;25.00;20.30;;;;;;;17.31;86.22;100502.40;213398;1291;139243;-86
2023/03/20 11:35:45;;;;;;;25.60;19.50;;;;;;;17.28;85.44;100502.05;213978;1289;139922;-85
2023/03/20 11:40:47;;;;;;;23.90;18.10;;;;;;;17.21;85.47;100504.22;213898;1288;139597;-86
2023/03/20 11:45:59;;;;;;;23.70;18.30;;;;;;;17.15;85.32;100501.52;213952;1289;139204;-86
2023/03/20 11:51:04;;;;;;;25.00;20.00;;;;;;;17.15;85.43;100497.73;213413;1289;139479;-86
2023/03/20 11:56:12;;;;;;;24.90;19.40;;;;;;;17.11;84.94;100490.54;213702;1293;139383;-86
2023/03/20 12:01:13;;;;;;;21.10;16.80;;;;;;;17.00;84.14;100489.20;213502;1290;142181;-86
2023/03/20 12:06:24;;;;;;;21.20;15.20;;;;;;;16.80;84.61;100478.27;214393;1292;97937;-85
2023/03/20 12:11:36;;;;;;;15.80;11.50;;;;;;;16.95;84.15;100469.88;213689;1288;139625;-85
2023/03/20 12:16:37;;;;;;;15.20;10.40;;;;;;;17.09;83.73;100462.76;214374;1293;139198;-85
2023/03/20 12:21:45;;;;;;;15.40;10.50;;;;;;;17.16;82.00;100462.59;217784;1288;139838;-88
2023/03/20 12:27:17;;;;;;;13.60;9.20;;;;;;;17.14;81.14;100459.35;216134;1288;139519;-87
2023/03/20 12:32:49;;;;;;;13.90;9.50;;;;;;;17.23;82.22;100456.19;213744;1291;138917;-86
2023/03/20 12:37:51;;;;;;;12.90;9.70;;;;;;;17.50;81.55;100459.20;213712;1289;138904;-87
2023/03/20 12:42:54;;;;;;;13.10;9.40;;;;;;;17.59;80.12;100454.69;213544;1291;142267;-86
2023/03/20 12:48:17;;;;;;;14.30;9.50;;;;;;;17.61;79.33;100451.54;213810;1289;138683;-88
2023/03/20 12:53:23;;;;;;;14.00;8.90;;;;;;;17.54;78.87;100440.69;213281;1294;139038;-86
2023/03/20 12:59:03;;;;;;;12.30;6.90;;;;;;;17.60;76.86;100438.61;213989;1289;139022;-87
2023/03/20 13:04:10;;;;;;;12.70;6.70;;;;;;;17.55;76.10;100438.30;214013;1289;139153;-85
2023/03/20 13:09:24;;;;;;;12.50;6.90;;;;;;;17.45;75.10;100432.02;213547;1289;139777;-85
2023/03/20 13:14:45;;;;;;;12.60;7.00;;;;;;;17.35;73.97;100425.25;214000;1292;138946;-86
2023/03/20 13:19:55;;;;;;;12.30;7.00;;;;;;;17.25;73.72;100421.43;213542;1291;139729;-87
2023/03/20 13:25:28;;;;;;;14.20;7.90;;;;;;;17.06;73.09;100417.84;214105;1294;98929;-85
2023/03/20 13:31:12;;;;;;;12.50;6.90;;;;;;;16.94;74.01;100417.71;213282;1288;139364;-85
2023/03/20 13:36:28;;;;;;;15.80;10.10;;;;;;;16.78;74.04;100417.63;214735;1289;138727;-86
2023/03/20 13:41:30;;;;;;;17.60;10.90;;;;;;;16.62;74.30;100414.11;213891;1293;139906;-85
2023/03/20 13:46:38;;;;;;;16.40;11.60;;;;;;;16.51;74.72;100405.77;214490;1289;140184;-85
2023/03/20 13:52:09;;;;;;;19.00;13.40;;;;;;;16.46;72.97;100401.16;213499;1289;139185;-85
2023/03/20 13:57:35;;;;;;;17.40;12.10;;;;;;;16.35;71.95;100404.93;213840;1289;139312;-86
2023/03/20 14:03:02;;;;;;;17.80;12.50;;;;;;;16.34;74.15;100404.92;213288;1291;139054;-87
2023/03/20 14:08:37;;;;;;;17.70;12.90;;;;;;;16.42;74.04;100403.27;213881;1289;139640;-87
2023/03/20 14:13:37;;;;;;;17.60;14.00;;;;;;;16.44;75.87;100407.38;213549;1289;139915;-88
2023/03/20 14:18:40;;;;;;;17.40;13.70;;;;;;;16.37;76.87;100403.32;214260;1295;98798;-86
2023/03/20 14:23:45;;;;;;;18.60;14.40;;;;;;;16.36;77.76;100405.30;213859;1289;139298;-87
2023/03/20 14:28:59;;;;;;;22.10;16.40;;;;;;;16.40;78.21;100401.96;214572;1289;139526;-88
2023/03/20 14:34:11;;;;;;;21.20;15.70;;;;;;;16.30;77.65;100406.89;213981;1292;140013;-86
2023/03/20 14:39:36;;;;;;;20.20;15.70;;;;;;;16.13;77.77;100410.83;213291;1292;139766;-88
2023/03/20 14:45:15;;;;;;;20.70;15.10;;;;;;;15.99;78.20;100410.19;213818;1289;139968;-89
2023/03/20 14:50:55;;;;;;;21.30;14.20;;;;;;;15.79;78.43;100414.46;213420;1293;142626;-87
2023/03/20 14:55:56;;;;;;;32.60;21.70;;;;;;;15.55;79.32;100424.36;213968;1288;140016;-88
2023/03/20 15:01:05;;;;;;;35.40;22.50;;;;;;;15.33;80.96;100434.84;213632;1291;139450;-88
2023/03/20 15:06:08;;;;;;;38.20;23.60;;;;;;;15.22;81.68;100440.15;214364;1288;138205;-87
2023/03/20 15:11:12;;;;;;;33.80;20.80;;;;;;;15.03;82.34;100443.68;213602;1289;139734;-87
2023/03/20 15:16:14;;;;;;;27.70;17.30;;;;;;;14.89;82.61;100445.27;214132;1291;139384;-87
2023/03/20 15:21:18;;;;;;;23.90;14.80;;;;;;;14.72;82.18;100443.00;213755;1289;140153;-86
2023/03/20 15:26:21;;;;;;;22.20;13.40;;;;;;;14.57;81.38;100448.70;214170;1294;139692;-87
2023/03/20 15:31:29;;;;;;;22.70;13.60;;;;;;;14.32;80.42;100449.91;213530;1289;139882;-87
2023/03/20 15:36:36;;;;;;;26.20;14.10;;;;;;;14.11;80.80;100451.92;214481;1289;97981;-88
2023/03/20 15:41:37;;;;;;;22.70;11.90;;;;;;;13.90;80.59;100453.09;213508;1288;140073;-87
2023/03/20 15:46:37;;;;;;;27.20;13.80;;;;;;;13.69;80.96;100456.98;213966;1289;139044;-87
2023/03/20 15:51:38;;;;;;;25.10;14.80;;;;;;;13.57;81.36;100457.17;213560;1292;139202;-87
2023/03/20 15:56:44;;;;;;;26.30;15.00;;;;;;;13.50;81.77;100458.11;213995;1289;139008;-86
2023/03/20 16:01:48;;;;;;;25.40;14.30;;;;;;;13.35;81.27;100459.14;213460;1292;140461;-87
2023/03/20 16:06:59;;;;;;;25.30;14.30;;;;;;;13.12;82.15;100464.19;214276;1289;98695;-86
2023/03/20 16:12:02;;;;;;;26.30;14.90;;;;;;;13.00;82.69;100468.10;213355;1289;247169;-87
2023/03/20 16:17:03;;;;;;;26.70;14.60;;;;;;;12.87;83.02;100465.28;214005;1289;138876;-87
2023/03/20 16:22:30;;;;;;;28.70;15.60;;;;;;;12.79;83.43;100465.90;213460;1293;141183;-87
2023/03/20 16:27:33;;;;;;;;;;;;;;;12.62;83.73;100473.58;214015;1291;140184;-87
2023/03/20 16:32:40;;;;;;;30.10;14.60;;;;;;;12.48;84.07;100472.58;213889;1294;125471;-86
2023/03/20 16:37:43;;;;;;;;;;;;;;;12.34;83.89;100475.11;214063;1294;139150;-87
2023/03/20 16:42:44;;;;;;;34.80;18.20;;;;;;;12.15;84.54;100473.38;213922;1292;125236;-87
2023/03/20 16:47:47;;;;;;;41.00;22.20;;;;;;;12.06;85.32;100476.39;214389;1294;139094;-88
2023/03/20 16:52:51;;;;;;;33.20;19.40;;;;;;;11.97;85.80;100480.83;213756;1289;139626;-87
2023/03/20 16:57:56;;;;;;;32.20;18.90;;;;;;;11.86;86.58;100482.65;214150;1293;139041;-87
2023/03/20 17:03:11;;;;;;;31.10;17.10;;;;;;;11.80;86.86;100487.97;213562;1294;142127;-87
2023/03/20 17:08:15;;;;;;;33.10;18.20;;;;;;;11.70;87.17;100495.77;214078;1294;139058;-88
2023/03/20 17:13:15;;;;;;;29.40;16.50;;;;;;;11.61;87.43;100493.10;213723;1293;139509;-87
2023/03/20 17:18:16;;;;;;;32.10;16.40;;;;;;;11.55;87.73;100495.88;214806;1292;138694;-88
2023/03/20 17:23:21;;;;;;;30.70;17.10;;;;;;;11.48;87.90;100497.70;213786;1288;139182;-88
2023/03/20 17:28:25;;;;;;;31.50;17.30;;;;;;;11.39;88.35;100503.28;214097;1289;139180;-88
2023/03/20 17:33:27;;;;;;;32.00;17.30;;;;;;;11.34;88.67;100503.31;213422;1292;139987;-88
2023/03/20 17:38:28;;;;;;;35.00;17.90;;;;;;;11.26;88.69;100508.03;214337;1293;138922;-87
2023/03/20 17:43:28;;;;;;;32.90;17.30;;;;;;;11.19;89.13;100504.11;213420;1289;139704;-88
2023/03/20 17:48:29;;;;;;;30.10;15.30;;;;;;;11.11;89.41;100504.66;214091;1292;99253;-89
2023/03/20 17:53:30;;;;;;;31.80;17.10;;;;;;;11.05;89.72;100505.70;213441;1294;139324;-88
2023/03/20 17:58:30;;;;;;;27.90;14.80;;;;;;;10.98;89.76;100501.54;213773;1289;139303;-87
2023/03/20 18:03:31;;;;;;;33.90;17.10;;;;;;;10.91;90.03;100501.45;213278;1294;140944;-88
2023/03/20 18:08:32;;;;;;;29.00;15.50;;;;;;;10.84;89.99;100499.25;213931;1292;139220;-88
2023/03/20 18:13:32;;;;;;;28.20;15.50;;;;;;;10.77;89.91;100497.61;213255;1294;139905;-88
2023/03/20 18:18:33;;;;;;;25.10;13.60;;;;;;;10.70;89.92;100502.40;213803;1294;107037;-88
2023/03/20 18:23:33;;;;;;;24.60;13.40;;;;;;;10.61;90.19;100507.97;216474;1292;140041;-87
2023/03/20 18:28:34;;;;;;;27.80;14.90;;;;;;;10.55;90.14;100512.05;217928;1289;139918;-87
2023/03/20 18:33:34;;;;;;;25.80;14.10;;;;;;;10.50;90.41;100505.95;217465;1289;140114;-86
2023/03/20 18:38:35;;;;;;;26.40;12.70;;;;;;;10.48;90.42;100503.63;217951;1289;139834;-87
2023/03/20 18:43:36;;;;;;;23.50;11.80;;;;;;;10.44;90.73;100507.74;217383;1293;140796;-86
2023/03/20 18:48:36;;;;;;;22.60;12.50;;;;;;;10.41;91.66;100504.09;217938;1292;97297;-86
2023/03/20 18:53:37;;;;;;;25.20;12.50;;;;;;;10.39;92.12;100514.44;217285;1292;139589;-87
2023/03/20 18:58:45;;;;;;;24.50;12.50;;;;;;;10.36;92.39;100511.50;217939;1289;139690;-86
2023/03/20 19:03:46;;;;;;;23.30;12.80;;;;;;;10.32;92.77;100519.70;217481;1292;139682;-86
2023/03/20 19:08:49;;;;;;;27.60;11.60;;;;;;;10.26;93.61;100522.43;217418;1289;139837;-84
2023/03/20 19:13:54;;;;;;;22.20;12.10;;;;;;;10.21;94.45;100522.39;217848;1292;139987;-86
2023/03/20 19:19:00;;;;;;;23.10;11.50;;;;;;;10.18;94.93;100523.48;217378;1289;141007;-86
2023/03/20 19:24:03;;;;;;;21.60;11.80;;;;;;;10.12;95.24;100520.83;217855;1292;140642;-86
2023/03/20 19:29:06;;;;;;;26.90;13.30;;;;;;;10.07;95.82;100519.81;217366;1289;142069;-86
2023/03/20 19:34:07;;;;;;;32.50;15.20;;;;;;;10.03;95.95;100520.30;217831;1291;140031;-87
2023/03/20 19:39:12;;;;;;;36.20;19.40;;;;;;;10.00;96.29;100520.48;217366;1289;139650;-87
2023/03/20 19:44:13;;;;;;;29.60;15.90;;;;;;;9.95;96.40;100521.66;217912;1289;140551;-86
2023/03/20 19:49:19;;;;;;;30.70;14.30;;;;;;;9.91;96.95;100523.70;217465;1288;139193;-86
2023/03/20 19:54:20;;;;;;;27.10;13.60;;;;;;;9.86;96.97;100519.16;217964;1289;138669;-87
2023/03/20 19:59:23;;;;;;;25.30;13.90;;;;;;;9.82;97.27;100517.05;217359;1289;139908;-86
2023/03/20 20:04:23;;;;;;;23.10;12.20;;;;;;;9.79;97.68;100515.35;217785;1289;138867;-87
2023/03/20 20:09:25;;;;;;;19.90;10.40;;;;;;;9.76;97.74;100508.32;217292;1289;139485;-87
2023/03/20 20:14:26;;;;;;;25.20;13.50;;;;;;;9.73;97.80;100508.89;217915;1289;138913;-87
2023/03/20 20:19:26;;;;;;;23.70;12.00;;;;;;;9.69;98.33;100507.75;217459;1288;140187;-87
2023/03/20 20:24:27;;;;;;;27.00;12.10;;;;;;;9.62;98.60;100506.62;218021;1289;96628;-87
2023/03/20 20:29:27;;;;;;;27.00;13.80;;;;;;;9.58;98.57;100504.66;217411;1288;139264;-87
2023/03/20 20:34:30;;;;;;;24.90;13.20;;;;;;;9.57;98.50;100506.98;217964;1288;139056;-87
2023/03/20 20:39:30;;;;;;;30.10;14.00;;;;;;;9.54;99.06;100503.86;217437;1289;140078;-87
2023/03/20 20:44:31;;;;;;;25.40;13.20;;;;;;;9.51;98.71;100508.23;217831;1289;139016;-87
2023/03/20 20:49:31;;;;;;;24.90;12.80;;;;;;;9.49;99.12;100508.34;217368;1289;139901;-87
2023/03/20 20:54:32;;;;;;;29.50;14.60;;;;;;;9.48;99.15;100508.02;218090;1289;96711;-86
2023/03/20 20:59:36;;;;;;;26.90;13.80;;;;;;;9.45;99.52;100508.36;217434;1288;139358;-87
2023/03/20 21:04:41;;;;;;;27.60;13.50;;;;;;;9.43;99.64;100508.55;217887;1289;139080;-86
2023/03/20 21:09:42;;;;;;;27.20;14.40;;;;;;;9.41;99.46;100511.73;217347;1289;139274;-86
2023/03/20 21:14:42;;;;;;;24.30;12.70;;;;;;;9.37;99.57;100510.35;217904;1291;138965;-87
2023/03/20 21:19:43;;;;;;;26.50;13.60;;;;;;;9.36;99.59;100511.18;217352;1288;139368;-87
2023/03/20 21:24:43;;;;;;;29.00;14.80;;;;;;;9.34;99.88;100509.66;218086;1289;96680;-87
2023/03/20 21:29:51;;;;;;;25.80;14.20;;;;;;;9.30;99.80;100513.60;217350;1289;141910;-87
2023/03/20 21:34:52;;;;;;;29.10;14.30;;;;;;;9.27;99.68;100508.37;217897;1289;138921;-88
2023/03/20 21:39:55;;;;;;;24.90;13.20;;;;;;;9.26;99.67;100508.73;217468;1289;139861;-88
2023/03/20 21:44:58;;;;;;;26.70;13.10;;;;;;;9.23;99.87;100511.44;217985;1288;138961;-88
2023/03/20 21:49:59;;;;;;;25.60;13.50;;;;;;;9.22;99.77;100511.96;217358;1289;139991;-89
2023/03/20 21:55:00;;;;;;;29.40;13.80;;;;;;;9.21;99.86;100511.72;218026;1291;96613;-88
2023/03/20 22:00:01;;;;;;;30.50;13.60;;;;;;;9.19;99.84;100509.08;217390;1288;139350;-88
2023/03/20 22:05:01;;;;;;;30.90;14.50;;;;;;;9.17;99.73;100509.05;217915;1288;138828;-89
2023/03/20 22:10:02;;;;;;;23.90;13.20;;;;;;;9.15;99.84;100513.09;217427;1288;139159;-89
2023/03/20 22:15:04;;;;;;;29.00;13.90;;;;;;;9.13;99.94;100515.18;217895;1289;139009;-89
2023/03/20 22:20:04;;;;;;;28.00;14.60;;;;;;;9.11;99.98;100511.61;217282;1290;139098;-88
2023/03/20 22:25:05;;;;;;;26.50;13.80;;;;;;;9.09;99.94;100509.38;218005;1289;97340;-89
2023/03/20 22:30:06;;;;;;;26.80;13.70;;;;;;;9.07;100.00;100508.40;217479;1289;138614;-89
2023/03/20 22:35:07;;;;;;;25.80;13.60;;;;;;;9.04;100.00;100509.45;217914;1289;140667;-87
2023/03/20 22:40:08;;;;;;;32.20;16.50;;;;;;;9.02;100.00;100512.00;217468;1288;139801;-88